sensor_id;sensor_type;location;lat;lon;timestamp;pressure;altitude;pressure_sealevel;temperature;humidity
8416;BME280;4245;42.120;24.732;2022-09-01T00:54:59;98992.09;;;22.90;100.00
8416;BME280;4245;42.120;24.732;2022-09-01T00:57:28;98992.81;;;22.78;100.00
8416;BME280;4245;42.120;24.732;2022-09-01T00:59:57;98990.75;;;22.80;100.00
8416;BME280;4245;42.120;24.732;2022-09-01T01:02:25;99003.63;;;22.78;100.00
8416;BME280;4245;42.120;24.732;2022-09-01T01:04:52;99006.78;;;22.45;100.00
8416;BME280;4245;42.120;24.732;2022-09-01T01:07:21;98997.69;;;22.17;100.00
8416;BME280;4245;42.120;24.732;2022-09-01T01:09:49;99006.91;;;21.93;100.00
8416;BME280;4245;42.120;24.732;2022-09-01T01:12:19;99000.72;;;21.70;100.00
8416;BME280;4245;42.120;24.732;2022-09-01T01:14:48;98997.94;;;21.93;100.00
8416;BME280;4245;42.120;24.732;2022-09-01T01:17:16;99003.69;;;21.75;100.00
8416;BME280;4245;42.120;24.732;2022-09-01T01:19:45;98991.69;;;21.63;100.00
8416;BME280;4245;42.120;24.732;2022-09-01T01:22:38;98996.97;;;21.56;100.00
8416;BME280;4245;42.120;24.732;2022-09-01T01:25:25;98997.25;;;21.61;100.00
8416;BME280;4245;42.120;24.732;2022-09-01T01:28:03;98991.56;;;21.56;100.00
8416;BME280;4245;42.120;24.732;2022-09-01T01:30:30;98989.56;;;21.36;100.00
8416;BME280;4245;42.120;24.732;2022-09-01T01:33:02;98995.81;;;21.36;100.00
8416;BME280;4245;42.120;24.732;2022-09-01T01:35:30;98998.84;;;21.56;100.00
8416;BME280;4245;42.120;24.732;2022-09-01T01:37:59;98997.53;;;21.52;100.00
8416;BME280;4245;42.120;24.732;2022-09-01T01:40:28;98994.91;;;21.44;100.00
8416;BME280;4245;42.120;24.732;2022-09-01T01:42:55;98990.38;;;21.21;100.00
8416;BME280;4245;42.120;24.732;2022-09-01T01:45:25;98999.44;;;21.29;100.00
8416;BME280;4245;42.120;24.732;2022-09-01T01:47:53;98995.72;;;21.30;100.00
8416;BME280;4245;42.120;24.732;2022-09-01T01:50:23;98992.06;;;21.22;100.00
8416;BME280;4245;42.120;24.732;2022-09-01T01:52:50;98989.22;;;21.16;100.00
8416;BME280;4245;42.120;24.732;2022-09-01T01:55:19;98994.00;;;21.06;100.00
8416;BME280;4245;42.120;24.732;2022-09-01T01:57:53;98994.84;;;21.14;100.00
8416;BME280;4245;42.120;24.732;2022-09-01T02:00:22;99003.72;;;21.23;100.00
8416;BME280;4245;42.120;24.732;2022-09-01T02:02:51;98996.06;;;21.27;100.00
8416;BME280;4245;42.120;24.732;2022-09-01T02:05:20;98996.75;;;21.29;100.00
8416;BME280;4245;42.120;24.732;2022-09-01T02:07:51;98999.03;;;21.17;100.00
8416;BME280;4245;42.120;24.732;2022-09-01T02:10:22;98995.84;;;21.13;100.00
8416;BME280;4245;42.120;24.732;2022-09-01T02:12:49;98997.16;;;21.17;100.00
8416;BME280;4245;42.120;24.732;2022-09-01T02:15:18;99007.25;;;21.23;100.00
8416;BME280;4245;42.120;24.732;2022-09-01T02:17:45;99002.25;;;21.35;100.00
8416;BME280;4245;42.120;24.732;2022-09-01T02:20:13;99006.38;;;21.46;100.00
8416;BME280;4245;42.120;24.732;2022-09-01T02:22:42;99002.47;;;21.48;100.00
8416;BME280;4245;42.120;24.732;2022-09-01T02:25:11;99005.72;;;21.44;100.00
8416;BME280;4245;42.120;24.732;2022-09-01T02:27:41;99011.72;;;21.54;100.00
8416;BME280;4245;42.120;24.732;2022-09-01T02:30:09;99013.88;;;21.58;100.00
8416;BME280;4245;42.120;24.732;2022-09-01T02:32:38;99014.38;;;21.39;100.00
8416;BME280;4245;42.120;24.732;2022-09-01T02:35:07;99018.56;;;21.42;100.00
8416;BME280;4245;42.120;24.732;2022-09-01T02:37:36;99010.94;;;21.45;100.00
8416;BME280;4245;42.120;24.732;2022-09-01T02:40:06;99008.81;;;21.18;100.00
8416;BME280;4245;42.120;24.732;2022-09-01T02:42:38;99005.13;;;21.11;100.00
8416;BME280;4245;42.120;24.732;2022-09-01T02:45:08;99002.28;;;20.59;100.00
8416;BME280;4245;42.120;24.732;2022-09-01T02:47:42;98999.47;;;20.13;100.00
8416;BME280;4245;42.120;24.732;2022-09-01T02:50:12;99006.72;;;20.05;100.00
8416;BME280;4245;42.120;24.732;2022-09-01T02:52:43;99003.50;;;20.09;100.00
8416;BME280;4245;42.120;24.732;2022-09-01T02:55:13;99005.09;;;19.87;100.00
8416;BME280;4245;42.120;24.732;2022-09-01T02:57:48;99006.34;;;19.69;100.00
8416;BME280;4245;42.120;24.732;2022-09-01T03:00:17;99008.41;;;19.50;100.00
8416;BME280;4245;42.120;24.732;2022-09-01T03:03:00;99014.25;;;19.38;100.00
8416;BME280;4245;42.120;24.732;2022-09-01T03:05:29;99009.06;;;19.28;100.00
8416;BME280;4245;42.120;24.732;2022-09-01T03:08:00;99001.66;;;19.14;100.00
8416;BME280;4245;42.120;24.732;2022-09-01T03:10:30;99002.66;;;19.13;100.00
8416;BME280;4245;42.120;24.732;2022-09-01T03:12:59;99005.84;;;19.08;100.00
8416;BME280;4245;42.120;24.732;2022-09-01T03:15:27;99001.97;;;19.03;100.00
8416;BME280;4245;42.120;24.732;2022-09-01T03:17:54;99003.84;;;18.94;100.00
8416;BME280;4245;42.120;24.732;2022-09-01T03:20:25;99004.16;;;18.83;100.00
8416;BME280;4245;42.120;24.732;2022-09-01T03:22:52;99010.25;;;19.09;100.00
8416;BME280;4245;42.120;24.732;2022-09-01T03:25:19;99007.53;;;19.09;100.00
8416;BME280;4245;42.120;24.732;2022-09-01T03:27:49;99006.88;;;18.91;100.00
8416;BME280;4245;42.120;24.732;2022-09-01T03:30:16;99016.81;;;19.07;100.00
8416;BME280;4245;42.120;24.732;2022-09-01T03:32:43;99013.75;;;18.94;100.00
8416;BME280;4245;42.120;24.732;2022-09-01T03:35:11;99011.06;;;18.94;100.00
8416;BME280;4245;42.120;24.732;2022-09-01T03:37:39;99015.97;;;19.06;100.00
8416;BME280;4245;42.120;24.732;2022-09-01T03:40:10;99015.09;;;18.98;100.00
8416;BME280;4245;42.120;24.732;2022-09-01T03:42:38;99023.34;;;19.13;100.00
8416;BME280;4245;42.120;24.732;2022-09-01T03:45:06;99020.66;;;19.37;100.00
8416;BME280;4245;42.120;24.732;2022-09-01T03:47:34;99009.94;;;19.45;100.00
8416;BME280;4245;42.120;24.732;2022-09-01T03:50:05;99008.91;;;19.54;100.00
8416;BME280;4245;42.120;24.732;2022-09-01T03:52:32;99013.75;;;19.67;100.00
8416;BME280;4245;42.120;24.732;2022-09-01T03:55:01;99011.06;;;19.67;100.00
8416;BME280;4245;42.120;24.732;2022-09-01T03:57:28;99017.75;;;19.87;100.00
8416;BME280;4245;42.120;24.732;2022-09-01T03:59:55;99012.28;;;20.11;100.00
8416;BME280;4245;42.120;24.732;2022-09-01T04:02:22;99020.53;;;20.10;100.00
8416;BME280;4245;42.120;24.732;2022-09-01T04:04:50;99018.56;;;19.95;100.00
8416;BME280;4245;42.120;24.732;2022-09-01T04:07:17;99027.47;;;20.04;100.00
8416;BME280;4245;42.120;24.732;2022-09-01T04:09:43;99016.44;;;19.75;100.00
8416;BME280;4245;42.120;24.732;2022-09-01T04:12:12;99016.44;;;19.67;100.00
8416;BME280;4245;42.120;24.732;2022-09-01T04:14:40;99014.75;;;19.66;100.00
8416;BME280;4245;42.120;24.732;2022-09-01T04:17:07;99015.78;;;19.57;100.00
8416;BME280;4245;42.120;24.732;2022-09-01T04:19:51;99020.16;;;19.74;100.00
8416;BME280;4245;42.120;24.732;2022-09-01T04:22:18;99015.94;;;19.79;100.00
8416;BME280;4245;42.120;24.732;2022-09-01T04:24:45;99013.78;;;19.59;100.00
8416;BME280;4245;42.120;24.732;2022-09-01T04:27:14;99008.88;;;19.62;100.00
8416;BME280;4245;42.120;24.732;2022-09-01T04:29:43;99010.22;;;19.74;100.00
8416;BME280;4245;42.120;24.732;2022-09-01T04:32:11;99011.06;;;19.75;100.00
8416;BME280;4245;42.120;24.732;2022-09-01T04:34:38;99000.06;;;19.84;100.00
8416;BME280;4245;42.120;24.732;2022-09-01T04:37:07;99012.31;;;20.03;100.00
8416;BME280;4245;42.120;24.732;2022-09-01T04:39:34;99016.28;;;20.23;100.00
8416;BME280;4245;42.120;24.732;2022-09-01T04:42:03;99028.53;;;20.34;100.00
8416;BME280;4245;42.120;24.732;2022-09-01T04:44:32;99022.31;;;20.64;100.00
8416;BME280;4245;42.120;24.732;2022-09-01T04:47:00;99014.69;;;20.76;100.00
8416;BME280;4245;42.120;24.732;2022-09-01T04:49:27;99015.53;;;20.76;100.00
8416;BME280;4245;42.120;24.732;2022-09-01T04:51:58;99014.59;;;20.84;100.00
8416;BME280;4245;42.120;24.732;2022-09-01T04:54:24;99030.19;;;20.97;100.00
8416;BME280;4245;42.120;24.732;2022-09-01T04:56:51;99029.41;;;21.11;100.00
8416;BME280;4245;42.120;24.732;2022-09-01T04:59:21;99027.56;;;21.11;100.00
8416;BME280;4245;42.120;24.732;2022-09-01T05:01:50;99023.22;;;21.33;100.00
8416;BME280;4245;42.120;24.732;2022-09-01T05:04:22;99029.56;;;21.40;100.00
8416;BME280;4245;42.120;24.732;2022-09-01T05:06:51;99028.47;;;21.49;100.00
8416;BME280;4245;42.120;24.732;2022-09-01T05:09:25;99032.03;;;21.64;100.00
8416;BME280;4245;42.120;24.732;2022-09-01T05:11:53;99036.25;;;21.82;100.00
8416;BME280;4245;42.120;24.732;2022-09-01T05:14:22;99025.78;;;21.79;100.00
8416;BME280;4245;42.120;24.732;2022-09-01T05:16:55;99018.44;;;21.73;100.00
8416;BME280;4245;42.120;24.732;2022-09-01T05:19:23;99016.78;;;21.86;100.00
8416;BME280;4245;42.120;24.732;2022-09-01T05:21:53;99022.69;;;22.04;100.00
8416;BME280;4245;42.120;24.732;2022-09-01T05:24:23;99014.94;;;22.16;100.00
8416;BME280;4245;42.120;24.732;2022-09-01T05:26:56;99026.31;;;22.26;100.00
8416;BME280;4245;42.120;24.732;2022-09-01T05:29:25;99027.06;;;22.35;100.00
8416;BME280;4245;42.120;24.732;2022-09-01T05:31:55;99031.91;;;22.25;100.00
8416;BME280;4245;42.120;24.732;2022-09-01T05:34:23;99028.75;;;22.06;100.00
8416;BME280;4245;42.120;24.732;2022-09-01T05:36:53;99019.41;;;22.09;100.00
8416;BME280;4245;42.120;24.732;2022-09-01T05:39:21;99025.56;;;22.03;100.00
8416;BME280;4245;42.120;24.732;2022-09-01T05:41:49;99034.22;;;22.42;100.00
8416;BME280;4245;42.120;24.732;2022-09-01T05:44:17;99028.63;;;22.29;100.00
8416;BME280;4245;42.120;24.732;2022-09-01T05:46:47;99032.72;;;22.54;100.00
8416;BME280;4245;42.120;24.732;2022-09-01T05:49:16;99033.47;;;22.99;100.00
8416;BME280;4245;42.120;24.732;2022-09-01T05:51:45;99045.81;;;23.29;100.00
8416;BME280;4245;42.120;24.732;2022-09-01T05:54:14;99049.38;;;23.30;100.00
8416;BME280;4245;42.120;24.732;2022-09-01T05:56:42;99049.78;;;23.48;100.00
8416;BME280;4245;42.120;24.732;2022-09-01T05:59:09;99050.59;;;23.70;100.00
8416;BME280;4245;42.120;24.732;2022-09-01T06:01:36;99047.72;;;23.78;100.00
8416;BME280;4245;42.120;24.732;2022-09-01T06:04:05;99043.59;;;23.82;100.00
8416;BME280;4245;42.120;24.732;2022-09-01T06:06:38;99049.75;;;23.97;100.00
8416;BME280;4245;42.120;24.732;2022-09-01T06:09:06;99046.91;;;24.12;100.00
8416;BME280;4245;42.120;24.732;2022-09-01T06:11:35;99052.09;;;24.07;100.00
8416;BME280;4245;42.120;24.732;2022-09-01T06:14:02;99046.59;;;24.21;100.00
8416;BME280;4245;42.120;24.732;2022-09-01T06:16:30;99046.53;;;24.49;100.00
8416;BME280;4245;42.120;24.732;2022-09-01T06:18:57;99042.72;;;24.37;100.00
8416;BME280;4245;42.120;24.732;2022-09-01T06:21:25;99048.66;;;24.60;100.00
8416;BME280;4245;42.120;24.732;2022-09-01T06:23:56;99044.50;;;24.64;100.00
8416;BME280;4245;42.120;24.732;2022-09-01T06:26:26;99050.28;;;24.55;100.00
8416;BME280;4245;42.120;24.732;2022-09-01T06:28:54;99048.78;;;24.46;100.00
8416;BME280;4245;42.120;24.732;2022-09-01T06:31:21;99045.56;;;24.70;100.00
8416;BME280;4245;42.120;24.732;2022-09-01T06:33:50;99042.78;;;25.11;100.00
8416;BME280;4245;42.120;24.732;2022-09-01T06:36:19;99043.84;;;25.17;98.24
8416;BME280;4245;42.120;24.732;2022-09-01T06:38:48;99049.31;;;25.49;95.32
8416;BME280;4245;42.120;24.732;2022-09-01T06:41:18;99046.81;;;25.61;96.16
8416;BME280;4245;42.120;24.732;2022-09-01T06:43:46;99047.03;;;25.99;94.79
8416;BME280;4245;42.120;24.732;2022-09-01T06:46:14;99048.41;;;26.41;91.46
8416;BME280;4245;42.120;24.732;2022-09-01T06:48:42;99043.53;;;26.56;90.26
8416;BME280;4245;42.120;24.732;2022-09-01T06:51:13;99042.41;;;26.70;87.65
8416;BME280;4245;42.120;24.732;2022-09-01T06:53:40;99041.56;;;26.76;87.86
8416;BME280;4245;42.120;24.732;2022-09-01T06:56:07;99038.78;;;26.96;85.74
8416;BME280;4245;42.120;24.732;2022-09-01T06:58:39;99041.69;;;27.01;84.70
8416;BME280;4245;42.120;24.732;2022-09-01T07:01:10;99041.88;;;27.00;85.78
8416;BME280;4245;42.120;24.732;2022-09-01T07:03:41;99037.28;;;27.00;85.12
8416;BME280;4245;42.120;24.732;2022-09-01T07:06:09;99047.63;;;27.16;85.58
8416;BME280;4245;42.120;24.732;2022-09-01T07:08:37;99041.38;;;27.41;84.20
8416;BME280;4245;42.120;24.732;2022-09-01T07:11:07;99047.69;;;27.73;82.11
8416;BME280;4245;42.120;24.732;2022-09-01T07:13:34;99042.41;;;27.96;81.59
8416;BME280;4245;42.120;24.732;2022-09-01T07:16:03;99034.28;;;28.32;79.93
8416;BME280;4245;42.120;24.732;2022-09-01T07:18:31;99035.41;;;28.61;78.63
8416;BME280;4245;42.120;24.732;2022-09-01T07:20:58;99035.00;;;28.94;76.79
8416;BME280;4245;42.120;24.732;2022-09-01T07:23:31;99038.19;;;29.21;76.01
8416;BME280;4245;42.120;24.732;2022-09-01T07:25:58;99032.69;;;29.51;69.12
8416;BME280;4245;42.120;24.732;2022-09-01T07:28:25;99031.00;;;29.91;62.31
8416;BME280;4245;42.120;24.732;2022-09-01T07:30:56;99028.69;;;30.11;60.28
8416;BME280;4245;42.120;24.732;2022-09-01T07:33:26;99032.28;;;30.35;59.43
8416;BME280;4245;42.120;24.732;2022-09-01T07:35:54;99024.69;;;30.65;57.93
8416;BME280;4245;42.120;24.732;2022-09-01T07:38:22;99028.69;;;30.86;56.63
8416;BME280;4245;42.120;24.732;2022-09-01T07:40:49;99030.38;;;31.16;54.56
8416;BME280;4245;42.120;24.732;2022-09-01T07:43:20;99026.19;;;31.41;52.81
8416;BME280;4245;42.120;24.732;2022-09-01T07:45:51;99027.44;;;31.67;50.36
8416;BME280;4245;42.120;24.732;2022-09-01T07:48:21;99026.69;;;31.88;49.09
8416;BME280;4245;42.120;24.732;2022-09-01T07:50:52;99023.16;;;32.10;47.26
8416;BME280;4245;42.120;24.732;2022-09-01T07:53:21;99018.34;;;31.50;48.30
8416;BME280;4245;42.120;24.732;2022-09-01T07:55:49;99016.38;;;31.45;47.58
8416;BME280;4245;42.120;24.732;2022-09-01T07:58:17;99022.16;;;31.16;48.57
8416;BME280;4245;42.120;24.732;2022-09-01T08:00:45;99014.25;;;31.52;47.69
8416;BME280;4245;42.120;24.732;2022-09-01T08:03:15;99020.97;;;31.90;47.43
8416;BME280;4245;42.120;24.732;2022-09-01T08:05:43;99015.13;;;32.42;45.59
8416;BME280;4245;42.120;24.732;2022-09-01T08:08:12;99013.47;;;32.84;43.41
8416;BME280;4245;42.120;24.732;2022-09-01T08:10:39;99016.50;;;33.09;42.83
8416;BME280;4245;42.120;24.732;2022-09-01T08:13:08;99007.88;;;33.01;42.40
8416;BME280;4245;42.120;24.732;2022-09-01T08:15:36;99011.53;;;32.85;43.43
8416;BME280;4245;42.120;24.732;2022-09-01T08:18:04;99010.16;;;32.82;43.10
8416;BME280;4245;42.120;24.732;2022-09-01T08:20:31;99010.81;;;33.16;42.24
8416;BME280;4245;42.120;24.732;2022-09-01T08:22:59;99011.84;;;32.88;41.62
8416;BME280;4245;42.120;24.732;2022-09-01T08:25:27;99011.19;;;33.03;41.74
8416;BME280;4245;42.120;24.732;2022-09-01T08:27:55;99008.63;;;33.18;40.96
8416;BME280;4245;42.120;24.732;2022-09-01T08:30:21;99001.50;;;33.22;41.14
8416;BME280;4245;42.120;24.732;2022-09-01T08:32:49;98997.66;;;32.96;41.77
8416;BME280;4245;42.120;24.732;2022-09-01T08:35:15;99004.63;;;33.36;41.55
8416;BME280;4245;42.120;24.732;2022-09-01T08:37:42;99002.47;;;33.70;40.61
8416;BME280;4245;42.120;24.732;2022-09-01T08:40:12;99001.06;;;34.04;39.68
8416;BME280;4245;42.120;24.732;2022-09-01T08:42:51;98993.47;;;34.21;39.56
8416;BME280;4245;42.120;24.732;2022-09-01T08:45:21;98997.97;;;34.37;39.15
8416;BME280;4245;42.120;24.732;2022-09-01T08:47:52;98992.63;;;34.78;38.79
8416;BME280;4245;42.120;24.732;2022-09-01T08:50:20;98993.03;;;35.17;37.85
8416;BME280;4245;42.120;24.732;2022-09-01T08:52:51;98992.78;;;35.44;37.54
8416;BME280;4245;42.120;24.732;2022-09-01T08:55:25;98991.13;;;35.58;36.85
8416;BME280;4245;42.120;24.732;2022-09-01T08:57:56;98992.22;;;35.92;36.20
8416;BME280;4245;42.120;24.732;2022-09-01T09:00:25;98988.56;;;36.07;35.51
8416;BME280;4245;42.120;24.732;2022-09-01T09:03:00;98977.47;;;36.32;35.42
8416;BME280;4245;42.120;24.732;2022-09-01T09:05:36;98977.47;;;36.32;35.08
8416;BME280;4245;42.120;24.732;2022-09-01T09:08:50;98978.41;;;35.87;35.75
8416;BME280;4245;42.120;24.732;2022-09-01T09:11:33;98973.44;;;35.69;36.85
8416;BME280;4245;42.120;24.732;2022-09-01T09:14:09;98978.13;;;35.58;37.10
8416;BME280;4245;42.120;24.732;2022-09-01T09:16:41;98979.78;;;35.85;35.99
8416;BME280;4245;42.120;24.732;2022-09-01T09:19:13;98975.66;;;35.67;35.74
8416;BME280;4245;42.120;24.732;2022-09-01T09:21:44;98977.31;;;35.33;36.55
8416;BME280;4245;42.120;24.732;2022-09-01T09:24:16;98976.09;;;34.83;37.18
8416;BME280;4245;42.120;24.732;2022-09-01T09:26:47;98967.19;;;34.61;37.27
8416;BME280;4245;42.120;24.732;2022-09-01T09:29:16;98956.31;;;34.39;38.05
8416;BME280;4245;42.120;24.732;2022-09-01T09:31:43;98959.03;;;35.16;36.55
8416;BME280;4245;42.120;24.732;2022-09-01T09:34:30;98957.97;;;35.33;36.28
8416;BME280;4245;42.120;24.732;2022-09-01T09:37:00;98965.97;;;35.24;35.98
8416;BME280;4245;42.120;24.732;2022-09-01T09:39:27;98958.41;;;34.69;37.54
8416;BME280;4245;42.120;24.732;2022-09-01T09:42:04;98951.56;;;35.12;36.57
8416;BME280;4245;42.120;24.732;2022-09-01T09:44:40;98956.56;;;35.50;36.08
8416;BME280;4245;42.120;24.732;2022-09-01T09:47:08;98951.31;;;35.79;35.95
8416;BME280;4245;42.120;24.732;2022-09-01T09:49:36;98956.41;;;36.41;34.99
8416;BME280;4245;42.120;24.732;2022-09-01T09:52:16;98949.69;;;36.57;34.51
8416;BME280;4245;42.120;24.732;2022-09-01T09:55:05;98950.28;;;36.49;33.93
8416;BME280;4245;42.120;24.732;2022-09-01T09:57:37;98935.56;;;36.69;34.19
8416;BME280;4245;42.120;24.732;2022-09-01T10:00:17;98943.88;;;36.64;33.62
8416;BME280;4245;42.120;24.732;2022-09-01T10:02:45;98931.81;;;36.89;33.98
8416;BME280;4245;42.120;24.732;2022-09-01T10:05:24;98924.84;;;37.35;33.12
8416;BME280;4245;42.120;24.732;2022-09-01T10:07:53;98929.19;;;37.75;32.18
8416;BME280;4245;42.120;24.732;2022-09-01T10:10:29;98916.09;;;38.10;32.49
8416;BME280;4245;42.120;24.732;2022-09-01T10:12:57;98931.06;;;38.33;30.87
8416;BME280;4245;42.120;24.732;2022-09-01T10:15:31;98920.38;;;38.21;31.66
8416;BME280;4245;42.120;24.732;2022-09-01T10:18:03;98919.66;;;38.58;30.88
8416;BME280;4245;42.120;24.732;2022-09-01T10:20:33;98924.47;;;38.90;30.35
8416;BME280;4245;42.120;24.732;2022-09-01T10:23:03;98922.03;;;39.21;30.11
8416;BME280;4245;42.120;24.732;2022-09-01T10:25:33;98923.53;;;39.13;29.98
8416;BME280;4245;42.120;24.732;2022-09-01T10:28:06;98916.88;;;39.14;30.04
8416;BME280;4245;42.120;24.732;2022-09-01T10:30:39;98912.72;;;39.30;29.79
8416;BME280;4245;42.120;24.732;2022-09-01T10:33:09;98906.88;;;39.78;29.30
8416;BME280;4245;42.120;24.732;2022-09-01T10:35:39;98905.28;;;39.58;29.42
8416;BME280;4245;42.120;24.732;2022-09-01T10:38:12;98909.53;;;39.37;29.17
8416;BME280;4245;42.120;24.732;2022-09-01T10:40:41;98909.47;;;39.55;29.41
8416;BME280;4245;42.120;24.732;2022-09-01T10:43:25;98912.84;;;39.85;28.51
8416;BME280;4245;42.120;24.732;2022-09-01T10:45:54;98901.75;;;40.39;27.86
8416;BME280;4245;42.120;24.732;2022-09-01T10:48:25;98890.41;;;39.95;28.40
8416;BME280;4245;42.120;24.732;2022-09-01T10:50:53;98896.19;;;39.20;29.15
8416;BME280;4245;42.120;24.732;2022-09-01T10:53:41;98902.06;;;39.97;28.69
8416;BME280;4245;42.120;24.732;2022-09-01T10:56:11;98903.19;;;39.82;28.44
8416;BME280;4245;42.120;24.732;2022-09-01T10:59:02;98895.97;;;39.95;28.53
8416;BME280;4245;42.120;24.732;2022-09-01T11:02:03;98887.56;;;40.27;28.33
8416;BME280;4245;42.120;24.732;2022-09-01T11:05:09;98883.47;;;41.19;27.20
8416;BME280;4245;42.120;24.732;2022-09-01T11:07:37;98883.94;;;41.65;26.66
8416;BME280;4245;42.120;24.732;2022-09-01T11:13:15;98879.25;;;41.83;25.71
8416;BME280;4245;42.120;24.732;2022-09-01T11:15:46;98875.88;;;41.11;26.49
8416;BME280;4245;42.120;24.732;2022-09-01T11:18:16;98870.34;;;40.97;26.87
8416;BME280;4245;42.120;24.732;2022-09-01T11:20:50;98864.59;;;40.71;27.55
8416;BME280;4245;42.120;24.732;2022-09-01T11:23:23;98855.28;;;41.20;26.70
8416;BME280;4245;42.120;24.732;2022-09-01T11:25:51;98852.81;;;41.72;26.58
8416;BME280;4245;42.120;24.732;2022-09-01T11:28:34;98851.75;;;41.99;26.08
8416;BME280;4245;42.120;24.732;2022-09-01T11:31:14;98855.72;;;41.67;25.82
8416;BME280;4245;42.120;24.732;2022-09-01T11:33:55;98863.97;;;41.19;26.47
8416;BME280;4245;42.120;24.732;2022-09-01T11:36:30;98858.44;;;41.28;26.16
8416;BME280;4245;42.120;24.732;2022-09-01T11:39:07;98848.13;;;41.59;25.60
8416;BME280;4245;42.120;24.732;2022-09-01T11:41:48;98846.47;;;40.83;26.26
8416;BME280;4245;42.120;24.732;2022-09-01T11:44:23;98847.13;;;41.24;26.23
8416;BME280;4245;42.120;24.732;2022-09-01T11:46:55;98847.97;;;41.55;25.54
8416;BME280;4245;42.120;24.732;2022-09-01T11:49:28;98845.69;;;41.57;25.60
8416;BME280;4245;42.120;24.732;2022-09-01T11:51:57;98833.53;;;41.53;25.09
8416;BME280;4245;42.120;24.732;2022-09-01T11:54:24;98838.44;;;41.56;25.43
8416;BME280;4245;42.120;24.732;2022-09-01T11:56:52;98836.34;;;41.62;25.24
8416;BME280;4245;42.120;24.732;2022-09-01T11:59:33;98825.03;;;41.58;24.87
8416;BME280;4245;42.120;24.732;2022-09-01T12:02:00;98824.97;;;41.89;24.82
8416;BME280;4245;42.120;24.732;2022-09-01T12:04:33;98824.88;;;42.12;24.85
8416;BME280;4245;42.120;24.732;2022-09-01T12:07:04;98819.34;;;42.37;24.24
8416;BME280;4245;42.120;24.732;2022-09-01T12:09:34;98816.09;;;42.44;24.68
8416;BME280;4245;42.120;24.732;2022-09-01T12:12:02;98824.81;;;42.77;23.85
8416;BME280;4245;42.120;24.732;2022-09-01T12:14:30;98816.13;;;42.70;23.68
8416;BME280;4245;42.120;24.732;2022-09-01T12:16:59;98808.69;;;42.39;23.71
8416;BME280;4245;42.120;24.732;2022-09-01T12:19:28;98809.28;;;41.32;24.65
8416;BME280;4245;42.120;24.732;2022-09-01T12:21:59;98811.19;;;40.78;24.91
8416;BME280;4245;42.120;24.732;2022-09-01T12:24:27;98791.09;;;41.03;24.89
8416;BME280;4245;42.120;24.732;2022-09-01T12:26:57;98794.50;;;41.31;25.23
8416;BME280;4245;42.120;24.732;2022-09-01T12:29:25;98792.09;;;41.38;24.96
8416;BME280;4245;42.120;24.732;2022-09-01T12:31:53;98785.84;;;41.33;24.71
8416;BME280;4245;42.120;24.732;2022-09-01T12:34:27;98790.06;;;40.99;24.58
8416;BME280;4245;42.120;24.732;2022-09-01T12:37:05;98781.44;;;40.43;25.55
8416;BME280;4245;42.120;24.732;2022-09-01T12:39:34;98785.00;;;40.79;25.30
8416;BME280;4245;42.120;24.732;2022-09-01T12:42:10;98785.59;;;41.20;24.52
8416;BME280;4245;42.120;24.732;2022-09-01T12:44:46;98779.41;;;41.23;24.89
8416;BME280;4245;42.120;24.732;2022-09-01T12:47:48;98783.31;;;41.22;24.69
8416;BME280;4245;42.120;24.732;2022-09-01T12:50:36;98781.91;;;40.45;25.03
8416;BME280;4245;42.120;24.732;2022-09-01T12:53:15;98779.31;;;40.48;23.91
8416;BME280;4245;42.120;24.732;2022-09-01T12:55:57;98781.97;;;40.31;24.40
8416;BME280;4245;42.120;24.732;2022-09-01T12:58:27;98774.41;;;40.67;24.23
8416;BME280;4245;42.120;24.732;2022-09-01T13:01:00;98770.06;;;41.28;23.82
8416;BME280;4245;42.120;24.732;2022-09-01T13:03:27;98772.75;;;41.42;23.84
8416;BME280;4245;42.120;24.732;2022-09-01T13:05:56;98772.06;;;41.76;23.78
8416;BME280;4245;42.120;24.732;2022-09-01T13:08:27;98771.97;;;41.98;23.59
8416;BME280;4245;42.120;24.732;2022-09-01T13:10:56;98778.38;;;41.90;23.46
8416;BME280;4245;42.120;24.732;2022-09-01T13:13:25;98777.53;;;41.89;23.19
8416;BME280;4245;42.120;24.732;2022-09-01T13:15:55;98766.78;;;41.65;23.36
8416;BME280;4245;42.120;24.732;2022-09-01T13:18:24;98768.22;;;41.54;23.50
8416;BME280;4245;42.120;24.732;2022-09-01T13:20:51;98766.19;;;41.38;23.81
8416;BME280;4245;42.120;24.732;2022-09-01T13:23:19;98767.28;;;40.75;24.09
8416;BME280;4245;42.120;24.732;2022-09-01T13:25:48;98767.66;;;40.24;24.57
8416;BME280;4245;42.120;24.732;2022-09-01T13:28:15;98756.09;;;39.53;25.61
8416;BME280;4245;42.120;24.732;2022-09-01T13:30:44;98747.22;;;39.38;25.57
8416;BME280;4245;42.120;24.732;2022-09-01T13:33:13;98749.31;;;39.00;25.55
8416;BME280;4245;42.120;24.732;2022-09-01T13:35:40;98759.00;;;38.51;26.26
8416;BME280;4245;42.120;24.732;2022-09-01T13:38:06;98753.69;;;38.17;26.88
8416;BME280;4245;42.120;24.732;2022-09-01T13:40:33;98755.88;;;37.78;27.33
8416;BME280;4245;42.120;24.732;2022-09-01T13:43:01;98752.06;;;37.26;28.17
8416;BME280;4245;42.120;24.732;2022-09-01T13:45:29;98747.16;;;36.84;28.83
8416;BME280;4245;42.120;24.732;2022-09-01T13:47:56;98743.56;;;36.55;28.87
8416;BME280;4245;42.120;24.732;2022-09-01T13:50:23;98744.13;;;36.08;29.23
8416;BME280;4245;42.120;24.732;2022-09-01T13:52:53;98744.88;;;35.64;30.19
8416;BME280;4245;42.120;24.732;2022-09-01T13:55:23;98735.59;;;35.40;30.47
8416;BME280;4245;42.120;24.732;2022-09-01T13:57:51;98733.47;;;35.07;31.08
8416;BME280;4245;42.120;24.732;2022-09-01T14:00:22;98729.31;;;35.24;30.63
8416;BME280;4245;42.120;24.732;2022-09-01T14:02:52;98728.22;;;35.05;31.02
8416;BME280;4245;42.120;24.732;2022-09-01T14:05:22;98731.56;;;34.82;31.39
8416;BME280;4245;42.120;24.732;2022-09-01T14:07:50;98730.47;;;34.93;31.38
8416;BME280;4245;42.120;24.732;2022-09-01T14:10:18;98731.03;;;34.85;31.64
8416;BME280;4245;42.120;24.732;2022-09-01T14:12:45;98731.03;;;34.80;31.60
8416;BME280;4245;42.120;24.732;2022-09-01T14:15:14;98733.50;;;34.76;31.78
8416;BME280;4245;42.120;24.732;2022-09-01T14:17:43;98730.75;;;34.76;31.89
8416;BME280;4245;42.120;24.732;2022-09-01T14:20:12;98729.66;;;34.77;32.10
8416;BME280;4245;42.120;24.732;2022-09-01T14:22:40;98726.88;;;34.82;32.12